Flight Track Log - Related Links

Times and Time Zones

All times are in EDT time to prevent confusion due to time zone crossing. See the N560GS flight status page for this flight to view local times or setup timezone preferences in your user account.

Time Position Orientation Groundspeed Altitude Reporting Facility
EDT Latitude Longitude Course Direction KTS MPH feet Rate Location/Type
Thu 12:03:52 PM 34.3947 -77.9603 341° North 257 296 6,700  Level Washington Center
Thu 12:04:51 PM 34.4650 -77.9875 342° North 263 303 10,400 3,450 Climbing Washington Center
Thu 12:05:52 PM 34.5333 -78.0172 340° North 263 303 13,600 3,025 Climbing Washington Center
Thu 12:06:52 PM 34.6056 -78.0472 341° North 263 303 16,500 2,746 Climbing Washington Center
Thu 12:07:50 PM 34.6800 -78.0797 340° North 274 315 19,000 2,492 Climbing Washington Center
Thu 12:08:00 PM 34.7287 -78.0814 342° North  Level FlightAware Approximate
Thu 12:08:50 PM 34.7589 -78.1075 344° North 280 322 21,400  Level Washington Center
Thu 12:09:51 PM 34.8311 -78.1400 340° North 292 336 23,000 1,388 Climbing Washington Center
Thu 12:11:04 PM 34.9242 -78.1758 342° North 315 362 24,500 1,374 Climbing Washington Center
Thu 12:12:02 PM 35.0400 -78.2228 342° North 345 397 26,000 756 Climbing Washington Center
Thu 12:13:03 PM 35.1456 -78.2667 341° North 376 433 26,000  Level Washington Center
Thu 12:14:04 PM 35.2572 -78.3111 342° North 401 461 26,000  Level Washington Center
Thu 12:15:02 PM 35.3708 -78.3608 340° North 423 487 26,000  Level Washington Center
Thu 12:16:02 PM 35.4867 -78.4083 342° North 423 487 26,000  Level Washington Center
Thu 12:17:02 PM 35.6189 -78.4614 342° North 434 499 26,000  Level Washington Center
Thu 12:18:04 PM 35.7303 -78.5142 339° North 441 507 26,000 -541 Level Washington Center
Thu 12:19:04 PM 35.8419 -78.5592 342° North 435 501 24,900 -1,220 Descending Washington Center
Thu 12:20:02 PM 35.9469 -78.6067 340° North 423 487 23,600 -1,412 Descending Washington Center
Thu 12:21:03 PM 36.0544 -78.6519 341° North 411 473 22,100 -1,488 Descending Washington Center
Thu 12:22:03 PM 36.1575 -78.6972 340° North 404 465 20,600 -1,500 Descending Washington Center
Thu 12:23:03 PM 36.2586 -78.7372 342° North 385 443 19,100 -1,488 Descending Washington Center
Thu 12:24:04 PM 36.3453 -78.7767 340° North 362 417 17,600 -1,059 Descending Washington Center
Thu 12:25:02 PM 36.4403 -78.8167 341° North 341 392 17,000 -305 Descending Washington Center
Thu 12:26:02 PM 36.5289 -78.8592 339° North 341 392 17,000 -694 Level Washington Center
Thu 12:27:03 PM 36.6153 -78.8964 341° North 341 392 15,600 -1,500 Descending Washington Center
Thu 12:28:02 PM 36.6939 -78.9258 343° North 336 387 14,000 -1,800 Descending Washington Center
Thu 12:29:03 PM 36.7806 -78.9631 341° North 331 381 12,000 -2,262 Descending Washington Center
Thu 12:30:04 PM 36.8711 -79.0008 342° North 324 373 9,400 -2,380 Descending Washington Center
Thu 12:31:04 PM 36.9453 -79.0353 340° North 305 351 7,200 -2,034 Descending Washington Center
Thu 12:32:02 PM 37.0153 -79.0644 342° North 281 323 5,400 -1,613 Descending Washington Center
Thu 12:33:03 PM 37.0753 -79.0881 343° North 257 296 4,000 -694 Descending Washington Center
Thu 12:34:03 PM 37.1197 -79.1317 322° Northwest 240 276 4,000 -397 Level Washington Center
Thu 12:35:04 PM 37.1344 -79.2028 285° West 199 229 3,200 -500 Descending Washington Center
Thu 12:36:03 PM 37.1450 -79.2631 282° West 194 223 3,000 -100 Descending Washington Center
Thu 12:37:04 PM 37.1714 -79.2878 323° Northwest 107 123 3,000 -50 Level Washington Center
Thu 12:38:04 PM 37.2072 -79.2767 14° North 99 114 2,900 -100 Descending Washington Center
Thu 12:40:00 PM 37.3167 -79.2000 322° Northwest  Level FlightAware Approximate
Thu 12:47:00 PM 37.3254 -79.2012 322° Northwest  Level Estimated
Thu 12:48:00 PM 37.3254 -79.2012 322° Northwest  Level Estimated
Thu 12:49:00 PM 37.3254 -79.2012 322° Northwest  Level Estimated
Thu 12:50:00 PM 37.3254 -79.2012 322° Northwest  Level Estimated
Thu 12:51:00 PM 37.3254 -79.2012 322° Northwest  Level Estimated
Thu 12:52:00 PM 37.3254 -79.2012 322° Northwest  Level Estimated
Thu 12:53:00 PM 37.3254 -79.2012 322° Northwest  Level Estimated
Thu 12:54:00 PM 37.3254 -79.2012 322° Northwest  Level Estimated

Login

Don't have an account? Register now (free) for customized features, flight alerts, and more!